createdAt,value
2023-04-10T00:01:41.845Z,6.58
2023-04-10T00:04:09.499Z,6.58
2023-04-10T00:06:37.834Z,6.59
2023-04-10T00:09:10.206Z,6.55
2023-04-10T00:11:38.300Z,6.57
2023-04-10T00:14:07.805Z,6.53
2023-04-10T00:16:35.177Z,6.49
2023-04-10T00:19:02.116Z,6.49
2023-04-10T00:21:32.561Z,6.49
2023-04-10T00:23:59.535Z,6.47
2023-04-10T00:26:26.951Z,6.46
2023-04-10T00:28:53.979Z,6.53
2023-04-10T00:31:21.368Z,6.50
2023-04-10T00:33:48.467Z,6.50
2023-04-10T00:36:23.184Z,6.50
2023-04-10T00:38:50.213Z,6.57
2023-04-10T00:41:20.085Z,6.59
2023-04-10T00:43:47.063Z,6.64
2023-04-10T00:46:14.098Z,6.65
2023-04-10T00:48:41.660Z,6.65
2023-04-10T00:51:08.636Z,6.66
2023-04-10T00:53:35.776Z,6.68
2023-04-10T00:56:02.991Z,6.68
2023-04-10T00:58:29.908Z,6.70
2023-04-10T01:00:56.925Z,6.70
2023-04-10T01:03:24.575Z,6.74
2023-04-10T01:06:27.220Z,6.72
2023-04-10T01:09:06.626Z,6.71
2023-04-10T01:11:53.111Z,6.75
2023-04-10T01:14:28.261Z,6.76
2023-04-10T01:17:02.433Z,6.76
2023-04-10T01:19:39.722Z,6.68
2023-04-10T01:22:11.964Z,6.62
2023-04-10T01:24:56.448Z,6.63
2023-04-10T01:27:32.854Z,6.60
2023-04-10T01:30:01.819Z,6.58
2023-04-10T01:32:31.000Z,6.52
2023-04-10T01:35:08.023Z,6.52
2023-04-10T01:37:44.402Z,6.50
2023-04-10T01:40:15.041Z,6.47
2023-04-10T01:42:51.803Z,6.45
2023-04-10T01:45:26.309Z,6.45
2023-04-10T01:47:53.713Z,6.44
2023-04-10T01:50:24.474Z,6.48
2023-04-10T01:52:52.874Z,6.48
2023-04-10T01:55:26.707Z,6.46
2023-04-10T01:57:59.031Z,6.43
2023-04-10T02:00:26.349Z,6.40
2023-04-10T02:02:53.980Z,6.41
2023-04-10T02:05:25.958Z,6.42
2023-04-10T02:08:06.891Z,6.44
2023-04-10T02:10:56.521Z,6.46
2023-04-10T02:13:26.721Z,6.43
2023-04-10T02:15:55.957Z,6.39
2023-04-10T02:18:23.479Z,6.37
2023-04-10T02:20:51.254Z,6.31
2023-04-10T02:23:21.210Z,6.23
2023-04-10T02:25:50.638Z,6.21
2023-04-10T02:28:17.584Z,6.20
2023-04-10T02:30:44.666Z,6.23
2023-04-10T02:33:13.113Z,6.24
2023-04-10T02:35:40.176Z,6.24
2023-04-10T02:38:07.389Z,6.25
2023-04-10T02:40:37.397Z,6.25
2023-04-10T02:43:12.917Z,6.28
2023-04-10T02:45:42.010Z,6.27
2023-04-10T02:48:11.360Z,6.33
2023-04-10T02:50:38.252Z,6.35
2023-04-10T02:53:07.381Z,6.40
2023-04-10T02:55:34.689Z,6.41
2023-04-10T02:58:01.711Z,6.40
2023-04-10T03:00:29.176Z,6.38
2023-04-10T03:03:17.399Z,6.38
2023-04-10T03:05:52.076Z,6.36
2023-04-10T03:08:25.006Z,6.35
2023-04-10T03:10:52.122Z,6.34
2023-04-10T03:13:19.157Z,6.33
2023-04-10T03:15:47.104Z,6.36
2023-04-10T03:18:14.160Z,6.40
2023-04-10T03:20:53.402Z,6.42
2023-04-10T03:23:20.995Z,6.48
2023-04-10T03:25:55.112Z,6.56
2023-04-10T03:28:27.918Z,6.59
2023-04-10T03:30:58.361Z,6.61
2023-04-10T03:33:25.708Z,6.66
2023-04-10T03:35:53.961Z,6.60
2023-04-10T03:38:21.235Z,6.63
2023-04-10T03:40:48.198Z,6.72
2023-04-10T03:43:19.049Z,6.71
2023-04-10T03:45:47.366Z,6.78
2023-04-10T03:48:15.448Z,6.78
2023-04-10T03:50:44.986Z,6.80
2023-04-10T03:53:11.972Z,6.86
2023-04-10T03:55:38.828Z,6.83
2023-04-10T03:58:06.068Z,6.89
2023-04-10T04:00:35.961Z,6.98
2023-04-10T04:03:25.695Z,7.04
2023-04-10T04:05:55.624Z,7.03
2023-04-10T04:08:30.534Z,6.99
2023-04-10T04:11:16.158Z,6.80
2023-04-10T04:13:54.682Z,6.76
2023-04-10T04:16:41.130Z,6.77
2023-04-10T04:19:30.217Z,6.74
2023-04-10T04:22:21.100Z,6.75
2023-04-10T04:25:14.550Z,6.81
2023-04-10T04:28:02.718Z,6.92
2023-04-10T04:30:33.651Z,6.96
2023-04-10T04:33:26.599Z,6.82
2023-04-10T04:36:24.796Z,6.63
2023-04-10T04:39:30.517Z,6.53
2023-04-10T04:42:09.765Z,6.48
2023-04-10T04:44:59.948Z,6.61
2023-04-10T04:48:10.312Z,6.68
2023-04-10T04:50:56.012Z,6.72
2023-04-10T04:54:01.358Z,6.92
2023-04-10T04:56:28.357Z,7.07
2023-04-10T04:59:22.162Z,7.12
2023-04-10T05:02:24.906Z,7.13
2023-04-10T05:05:12.871Z,7.14
2023-04-10T05:07:53.071Z,7.24
2023-04-10T05:11:01.465Z,7.33
2023-04-10T05:13:41.156Z,7.46
2023-04-10T05:16:27.573Z,7.60
2023-04-10T05:19:12.926Z,7.68
2023-04-10T05:21:58.563Z,7.73
2023-04-10T05:25:01.099Z,7.71
2023-04-10T05:28:00.741Z,7.73
2023-04-10T05:30:43.191Z,7.76
2023-04-10T05:33:27.575Z,7.77
2023-04-10T05:36:14.885Z,7.89
2023-04-10T05:39:01.150Z,8.01
2023-04-10T05:41:46.035Z,8.10
2023-04-10T05:44:26.075Z,8.17
2023-04-10T05:47:25.390Z,8.33
2023-04-10T05:50:11.140Z,8.44
2023-04-10T05:52:56.752Z,8.43
2023-04-10T05:55:51.448Z,8.58
2023-04-10T05:58:44.065Z,8.64
2023-04-10T06:01:22.492Z,8.80
2023-04-10T06:03:57.764Z,8.96
2023-04-10T06:06:28.998Z,9.21
2023-04-10T06:08:56.624Z,9.49
2023-04-10T06:11:23.620Z,9.57
2023-04-10T06:13:53.941Z,9.50
2023-04-10T06:16:26.875Z,9.44
2023-04-10T06:18:55.237Z,9.38
2023-04-10T06:21:25.206Z,9.50
2023-04-10T06:24:03.868Z,9.53
2023-04-10T06:26:30.891Z,9.59
2023-04-10T06:28:57.880Z,9.72
2023-04-10T06:31:29.124Z,9.67
2023-04-10T06:33:56.321Z,9.49
2023-04-10T06:36:23.732Z,9.54
2023-04-10T06:39:02.908Z,9.62
2023-04-10T06:41:36.886Z,9.79
2023-04-10T06:44:18.619Z,9.81
2023-04-10T06:46:46.343Z,9.99
2023-04-10T06:49:13.324Z,9.99
2023-04-10T06:51:40.481Z,10.06
2023-04-10T06:54:07.375Z,10.03
2023-04-10T06:56:34.376Z,9.96
2023-04-10T06:59:01.870Z,9.92
2023-04-10T07:01:28.977Z,9.98
2023-04-10T07:03:56.437Z,10.01
2023-04-10T07:06:23.601Z,10.15
2023-04-10T07:08:51.462Z,10.27
2023-04-10T07:11:37.192Z,10.39
2023-04-10T07:14:04.196Z,10.43
2023-04-10T07:16:35.022Z,10.48
2023-04-10T07:19:02.159Z,10.61
2023-04-10T07:21:29.150Z,10.82
2023-04-10T07:23:56.208Z,10.98
2023-04-10T07:26:23.168Z,11.19
2023-04-10T07:29:00.602Z,11.41
2023-04-10T07:31:27.785Z,11.39
2023-04-10T07:33:57.706Z,11.31
2023-04-10T07:36:24.790Z,11.34
2023-04-10T07:38:51.960Z,11.36
2023-04-10T07:41:19.113Z,11.39
2023-04-10T07:43:46.969Z,11.60
2023-04-10T07:46:14.654Z,11.82
2023-04-10T07:48:41.767Z,11.88
2023-04-10T07:51:11.735Z,12.02
2023-04-10T07:53:38.957Z,12.17
2023-04-10T07:56:06.759Z,12.23
2023-04-10T07:58:34.318Z,12.26
2023-04-10T08:01:01.516Z,12.24
2023-04-10T08:03:28.572Z,12.19
2023-04-10T08:06:02.926Z,12.05
2023-04-10T08:08:30.095Z,11.87
2023-04-10T08:10:57.007Z,11.77
2023-04-10T08:13:23.923Z,11.42
2023-04-10T08:15:51.248Z,11.25
2023-04-10T08:18:19.180Z,11.30
2023-04-10T08:20:46.118Z,11.35
2023-04-10T08:23:20.484Z,11.35
2023-04-10T08:25:49.412Z,11.40
2023-04-10T08:28:16.319Z,11.55
2023-04-10T08:30:46.336Z,11.68
2023-04-10T08:33:16.335Z,11.67
2023-04-10T08:35:51.789Z,11.63
2023-04-10T08:38:18.851Z,11.55
2023-04-10T08:40:45.710Z,11.64
2023-04-10T08:43:13.105Z,11.74
2023-04-10T08:45:42.939Z,11.74
2023-04-10T08:48:14.113Z,11.99
2023-04-10T08:50:46.242Z,12.17
2023-04-10T08:53:15.560Z,12.22
2023-04-10T08:55:43.150Z,12.41
2023-04-10T08:58:13.867Z,12.48
2023-04-10T09:00:40.964Z,12.45
2023-04-10T09:03:26.713Z,12.44
2023-04-10T09:06:13.572Z,12.44
2023-04-10T09:08:40.698Z,12.49
2023-04-10T09:11:07.829Z,12.36
2023-04-10T09:13:43.911Z,12.28
2023-04-10T09:16:13.823Z,12.32
2023-04-10T09:18:51.786Z,12.39
2023-04-10T09:21:39.984Z,12.44
2023-04-10T09:24:08.340Z,12.50
2023-04-10T09:26:35.386Z,12.46
2023-04-10T09:29:26.925Z,12.48
2023-04-10T09:31:53.838Z,12.72
2023-04-10T09:34:22.682Z,12.80
2023-04-10T09:37:06.071Z,12.74
2023-04-10T09:39:43.379Z,12.62
2023-04-10T09:42:15.193Z,12.52
2023-04-10T09:44:43.041Z,12.54
2023-04-10T09:47:22.278Z,12.60
2023-04-10T09:49:57.390Z,12.64
2023-04-10T09:52:31.268Z,12.70
2023-04-10T09:55:06.003Z,12.70
2023-04-10T09:57:34.327Z,12.75
2023-04-10T10:00:04.509Z,13.07
2023-04-10T10:02:37.485Z,13.20
2023-04-10T10:05:29.230Z,13.42
2023-04-10T10:08:15.638Z,14.18
2023-04-10T10:10:51.971Z,14.87
2023-04-10T10:13:29.365Z,15.09
2023-04-10T10:16:04.399Z,15.22
2023-04-10T10:18:57.148Z,15.10
2023-04-10T10:21:25.093Z,15.53
2023-04-10T10:23:56.428Z,16.30
2023-04-10T10:26:24.233Z,17.01
2023-04-10T10:28:56.970Z,16.82
2023-04-10T10:31:26.240Z,16.90
2023-04-10T10:33:53.335Z,16.15
2023-04-10T10:36:20.964Z,15.49
2023-04-10T10:39:08.005Z,15.18
2023-04-10T10:41:47.000Z,14.80
2023-04-10T10:44:27.530Z,15.82
2023-04-10T10:47:08.640Z,16.23
2023-04-10T10:50:05.569Z,15.11
2023-04-10T10:52:50.001Z,16.23
2023-04-10T10:55:24.739Z,18.15
2023-04-10T10:57:53.143Z,19.30
2023-04-10T11:00:59.074Z,20.54
2023-04-10T11:03:29.089Z,21.16
2023-04-10T11:06:03.005Z,20.98
2023-04-10T11:08:32.671Z,19.78
2023-04-10T11:11:18.498Z,18.57
2023-04-10T11:14:01.095Z,18.79
2023-04-10T11:16:31.743Z,19.39
2023-04-10T11:19:13.036Z,19.03
2023-04-10T11:22:04.265Z,19.08
2023-04-10T11:24:58.492Z,20.47
2023-04-10T11:27:45.998Z,19.86
2023-04-10T11:30:26.662Z,18.85
2023-04-10T11:32:55.057Z,18.40
2023-04-10T11:35:22.844Z,18.35
2023-04-10T11:38:08.356Z,18.98
2023-04-10T11:40:35.535Z,18.32
2023-04-10T11:43:15.372Z,18.16
2023-04-10T11:45:42.641Z,17.86
2023-04-10T11:48:09.678Z,17.47
2023-04-10T11:50:36.927Z,16.91
2023-04-10T11:53:18.266Z,17.14
2023-04-10T11:55:45.470Z,16.07
2023-04-10T11:58:28.842Z,15.91
2023-04-10T12:01:01.464Z,15.68
2023-04-10T12:03:40.653Z,15.31
2023-04-10T12:06:10.564Z,15.11
2023-04-10T12:08:40.190Z,14.87
2023-04-10T12:11:08.399Z,14.75
2023-04-10T12:13:35.933Z,14.56
2023-04-10T12:16:09.860Z,14.45
2023-04-10T12:18:56.005Z,14.81
2023-04-10T12:21:28.640Z,15.49
2023-04-10T12:23:58.615Z,15.53
2023-04-10T12:26:27.553Z,15.53
2023-04-10T12:28:55.862Z,15.33
2023-04-10T12:31:36.645Z,15.35
2023-04-10T12:34:05.825Z,15.32
2023-04-10T12:36:34.920Z,14.94
2023-04-10T12:39:03.671Z,14.72
2023-04-10T12:41:33.097Z,14.73
2023-04-10T12:44:11.731Z,14.54
2023-04-10T12:46:44.611Z,14.19
2023-04-10T12:49:18.847Z,13.97
2023-04-10T12:51:46.904Z,13.77
2023-04-10T12:54:34.187Z,13.53
2023-04-10T12:57:04.488Z,13.32
2023-04-10T12:59:34.175Z,13.27
2023-04-10T13:02:01.735Z,13.01
2023-04-10T13:04:30.369Z,12.76
2023-04-10T13:06:57.538Z,12.63
2023-04-10T13:09:24.552Z,12.50
2023-04-10T13:12:10.174Z,12.42
2023-04-10T13:14:37.824Z,12.39
2023-04-10T13:17:04.819Z,12.47
2023-04-10T13:19:31.882Z,12.60
2023-04-10T13:22:01.367Z,12.71
2023-04-10T13:24:31.658Z,12.69
2023-04-10T13:27:01.882Z,12.71
2023-04-10T13:29:31.971Z,12.74
2023-04-10T13:32:01.422Z,12.69
2023-04-10T13:34:28.469Z,12.69
2023-04-10T13:36:55.501Z,12.75
2023-04-10T13:39:23.650Z,12.86
2023-04-10T13:41:53.117Z,12.79
2023-04-10T13:44:20.240Z,12.69
2023-04-10T13:46:47.475Z,12.87
2023-04-10T13:49:17.550Z,13.22
2023-04-10T13:51:47.607Z,13.34
2023-04-10T13:54:19.581Z,13.36
2023-04-10T13:56:48.291Z,12.91
2023-04-10T13:59:22.720Z,12.35
2023-04-10T14:01:53.692Z,12.05
2023-04-10T14:04:30.110Z,11.97
2023-04-10T14:07:02.857Z,11.61
2023-04-10T14:09:48.752Z,11.33
2023-04-10T14:12:35.980Z,11.19
2023-04-10T14:15:05.830Z,11.14
2023-04-10T14:17:36.000Z,11.22
2023-04-10T14:20:06.753Z,11.32
2023-04-10T14:22:33.892Z,11.29
2023-04-10T14:25:11.912Z,11.20
2023-04-10T14:27:44.036Z,11.04
2023-04-10T14:30:11.456Z,10.93
2023-04-10T14:32:41.429Z,10.77
2023-04-10T14:35:09.129Z,10.70
2023-04-10T14:37:36.615Z,10.63
2023-04-10T14:40:07.711Z,10.71
2023-04-10T14:42:39.185Z,10.77
2023-04-10T14:45:13.442Z,10.78
2023-04-10T14:47:42.025Z,10.74
2023-04-10T14:50:09.743Z,10.73
2023-04-10T14:52:36.825Z,10.67
2023-04-10T14:55:07.062Z,10.69
2023-04-10T14:57:36.236Z,10.69
2023-04-10T15:00:04.164Z,10.67
2023-04-10T15:02:33.419Z,10.64
2023-04-10T15:05:00.900Z,10.53
2023-04-10T15:07:28.629Z,10.49
2023-04-10T15:09:58.914Z,10.47
2023-04-10T15:12:26.040Z,10.47
2023-04-10T15:14:55.540Z,10.45
2023-04-10T15:17:23.781Z,10.53
2023-04-10T15:19:50.831Z,10.53
2023-04-10T15:22:17.813Z,10.49
2023-04-10T15:24:50.760Z,10.48
2023-04-10T15:27:21.930Z,10.49
2023-04-10T15:29:49.950Z,10.46
2023-04-10T15:32:17.372Z,10.45
2023-04-10T15:34:45.017Z,10.44
2023-04-10T15:37:12.348Z,10.41
2023-04-10T15:39:39.441Z,10.37
2023-04-10T15:42:08.345Z,10.34
2023-04-10T15:44:35.602Z,10.26
2023-04-10T15:47:02.825Z,10.24
2023-04-10T15:49:38.017Z,10.24
2023-04-10T15:52:08.568Z,10.25
2023-04-10T15:54:35.593Z,10.24
2023-04-10T15:57:03.567Z,10.21
2023-04-10T15:59:39.488Z,10.14
2023-04-10T16:02:06.707Z,10.14
2023-04-10T16:04:35.390Z,10.11
2023-04-10T16:07:02.691Z,10.11
2023-04-10T16:09:30.487Z,10.12
2023-04-10T16:11:57.908Z,10.10
2023-04-10T16:14:24.976Z,10.06
2023-04-10T16:16:51.861Z,10.04
2023-04-10T16:19:31.147Z,10.01
2023-04-10T16:21:58.321Z,9.85
2023-04-10T16:24:28.541Z,9.75
2023-04-10T16:26:59.569Z,9.74
2023-04-10T16:29:26.459Z,9.76
2023-04-10T16:31:53.540Z,9.66
2023-04-10T16:34:24.269Z,9.57
2023-04-10T16:36:51.430Z,9.52
2023-04-10T16:39:18.353Z,9.49
2023-04-10T16:41:45.355Z,9.53
2023-04-10T16:44:12.332Z,9.45
2023-04-10T16:46:39.661Z,9.48
2023-04-10T16:49:06.768Z,9.39
2023-04-10T16:51:34.212Z,9.30
2023-04-10T16:54:04.349Z,9.27
2023-04-10T16:56:36.186Z,9.14
2023-04-10T16:59:03.446Z,9.07
2023-04-10T17:01:31.023Z,9.06
2023-04-10T17:03:58.271Z,9.08
2023-04-10T17:06:28.506Z,9.02
2023-04-10T17:08:55.654Z,8.99
2023-04-10T17:11:22.793Z,9.00
2023-04-10T17:13:49.765Z,8.94
2023-04-10T17:16:16.776Z,8.87
2023-04-10T17:18:46.696Z,8.83
2023-04-10T17:21:16.997Z,8.71
2023-04-10T17:23:44.363Z,8.57
2023-04-10T17:26:17.655Z,8.48
2023-04-10T17:28:46.677Z,8.36
2023-04-10T17:31:14.318Z,8.29
2023-04-10T17:33:44.278Z,8.14
2023-04-10T17:36:12.565Z,8.17
2023-04-10T17:38:40.638Z,8.04
2023-04-10T17:41:08.445Z,8.13
2023-04-10T17:43:38.400Z,8.04
2023-04-10T17:46:05.814Z,7.96
2023-04-10T17:48:34.435Z,7.84
2023-04-10T17:51:06.927Z,7.82
2023-04-10T17:53:36.530Z,7.74
2023-04-10T17:56:06.198Z,7.67
2023-04-10T17:58:33.277Z,7.68
2023-04-10T18:01:00.317Z,7.68
2023-04-10T18:03:27.407Z,7.74
2023-04-10T18:05:59.212Z,7.72
2023-04-10T18:08:26.564Z,7.67
2023-04-10T18:10:53.620Z,7.63
2023-04-10T18:13:22.311Z,7.63
2023-04-10T18:15:49.337Z,7.59
2023-04-10T18:18:16.281Z,7.57
2023-04-10T18:20:43.499Z,7.54
2023-04-10T18:23:10.472Z,7.56
2023-04-10T18:25:37.489Z,7.59
2023-04-10T18:28:13.714Z,7.48
2023-04-10T18:30:42.171Z,7.52
2023-04-10T18:33:12.257Z,7.42
2023-04-10T18:35:39.341Z,7.43
2023-04-10T18:38:07.203Z,7.29
2023-04-10T18:40:35.734Z,7.19
2023-04-10T18:43:02.742Z,7.09
2023-04-10T18:45:30.055Z,7.00
2023-04-10T18:47:57.150Z,6.87
2023-04-10T18:50:24.440Z,6.79
2023-04-10T18:52:54.071Z,6.73
2023-04-10T18:55:21.278Z,6.69
2023-04-10T18:57:48.283Z,6.59
2023-04-10T19:00:15.570Z,6.43
2023-04-10T19:02:44.368Z,6.44
2023-04-10T19:05:14.451Z,6.38
2023-04-10T19:07:49.846Z,6.30
2023-04-10T19:10:24.209Z,6.30
2023-04-10T19:12:53.318Z,6.21
2023-04-10T19:15:20.640Z,6.10
2023-04-10T19:17:52.804Z,6.10
2023-04-10T19:20:52.796Z,5.92
2023-04-10T19:23:17.629Z,5.97
2023-04-10T19:25:44.961Z,6.00
2023-04-10T19:28:12.030Z,5.90
2023-04-10T19:30:38.995Z,5.89
2023-04-10T19:33:06.091Z,5.79
2023-04-10T19:35:33.284Z,5.72
2023-04-10T19:38:00.643Z,5.79
2023-04-10T19:40:27.685Z,5.69
2023-04-10T19:42:57.385Z,5.75
2023-04-10T19:45:29.378Z,5.53
2023-04-10T19:47:57.105Z,5.54
2023-04-10T19:50:24.280Z,5.48
2023-04-10T19:52:52.023Z,5.40
2023-04-10T19:55:19.373Z,5.37
2023-04-10T19:57:46.528Z,5.23
2023-04-10T20:00:15.966Z,5.27
2023-04-10T20:02:43.407Z,5.31
2023-04-10T20:05:13.428Z,5.27
2023-04-10T20:07:43.062Z,5.28
2023-04-10T20:10:10.968Z,5.30
2023-04-10T20:12:39.376Z,5.24
2023-04-10T20:15:09.106Z,5.26
2023-04-10T20:17:42.190Z,5.39
2023-04-10T20:20:09.761Z,5.35
2023-04-10T20:22:36.861Z,5.43
2023-04-10T20:25:03.963Z,5.39
2023-04-10T20:27:31.000Z,5.35
2023-04-10T20:29:58.124Z,5.28
2023-04-10T20:32:25.208Z,5.34
2023-04-10T20:34:52.206Z,5.28
2023-04-10T20:37:22.003Z,5.31
2023-04-10T20:39:51.256Z,5.37
2023-04-10T20:42:18.338Z,5.42
2023-04-10T20:44:45.459Z,5.45
2023-04-10T20:47:13.538Z,5.55
2023-04-10T20:49:40.895Z,5.60
2023-04-10T20:52:07.909Z,5.55
2023-04-10T20:54:34.841Z,5.71
2023-04-10T20:57:04.890Z,5.78
2023-04-10T20:59:37.854Z,5.80
2023-04-10T21:02:05.886Z,5.87
2023-04-10T21:04:34.877Z,5.89
2023-04-10T21:07:01.847Z,5.92
2023-04-10T21:09:29.849Z,5.94
2023-04-10T21:11:57.858Z,5.90
2023-04-10T21:14:27.758Z,6.01
2023-04-10T21:16:54.867Z,5.99
2023-04-10T21:19:24.562Z,5.95
2023-04-10T21:21:51.568Z,5.90
2023-04-10T21:24:18.626Z,5.91
2023-04-10T21:26:45.851Z,5.89
2023-04-10T21:29:12.809Z,5.90
2023-04-10T21:31:39.806Z,5.94
2023-04-10T21:34:07.592Z,5.94
2023-04-10T21:36:35.049Z,6.02
2023-04-10T21:39:01.945Z,6.08
2023-04-10T21:41:28.915Z,6.15
2023-04-10T21:43:56.665Z,6.19
2023-04-10T21:46:23.771Z,6.21
2023-04-10T21:48:53.054Z,6.24
2023-04-10T21:51:20.511Z,6.25
2023-04-10T21:53:47.588Z,6.25
2023-04-10T21:56:16.344Z,6.21
2023-04-10T21:58:43.330Z,6.20
2023-04-10T22:01:11.244Z,6.16
2023-04-10T22:03:39.579Z,6.21
2023-04-10T22:06:06.900Z,6.27
2023-04-10T22:08:33.951Z,6.41
2023-04-10T22:11:01.006Z,6.47
2023-04-10T22:13:31.420Z,6.49
2023-04-10T22:16:03.465Z,6.50
2023-04-10T22:18:30.585Z,6.49
2023-04-10T22:20:57.561Z,6.45
2023-04-10T22:23:24.588Z,6.50
2023-04-10T22:25:51.603Z,6.61
2023-04-10T22:28:18.594Z,6.64
2023-04-10T22:30:45.732Z,6.60
2023-04-10T22:33:13.042Z,6.58
2023-04-10T22:35:39.970Z,6.54
2023-04-10T22:38:12.358Z,6.54
2023-04-10T22:40:39.465Z,6.53
2023-04-10T22:43:06.428Z,6.57
2023-04-10T22:45:33.565Z,6.56
2023-04-10T22:48:00.661Z,6.60
2023-04-10T22:50:28.431Z,6.55
2023-04-10T22:52:55.578Z,6.43
2023-04-10T22:55:22.529Z,6.37
2023-04-10T22:57:49.516Z,6.41
2023-04-10T23:00:26.645Z,6.40
2023-04-10T23:02:53.895Z,6.43
2023-04-10T23:05:21.028Z,6.43
2023-04-10T23:07:48.232Z,6.44
2023-04-10T23:10:15.287Z,6.43
2023-04-10T23:12:47.922Z,6.37
2023-04-10T23:15:14.997Z,6.38
2023-04-10T23:17:42.084Z,6.45
2023-04-10T23:20:09.479Z,6.48
2023-04-10T23:22:36.555Z,6.51
2023-04-10T23:25:03.696Z,6.55
2023-04-10T23:27:30.723Z,6.56
2023-04-10T23:30:00.267Z,6.65
2023-04-10T23:32:27.239Z,6.70
2023-04-10T23:34:54.277Z,6.72
2023-04-10T23:37:24.763Z,6.73
2023-04-10T23:39:52.331Z,6.72
2023-04-10T23:42:19.247Z,6.76
2023-04-10T23:44:46.524Z,6.81
2023-04-10T23:47:15.816Z,6.83
2023-04-10T23:49:44.921Z,6.83
2023-04-10T23:52:11.887Z,6.80
2023-04-10T23:54:38.903Z,6.76
2023-04-10T23:57:06.050Z,6.73
2023-04-10T23:59:34.339Z,6.71
